EHVL

Vlieland Heliport

Vlieland, The Netherlands
METAR EHVL 221755Z AUTO 22018KT 9000 HZ OVC270 16/11 Q1007 BLU
Observed Flight Rules
Apr-22 @ 17:55 UTC (25 minutes ago) Visual Flight Rules
Wind Visibility Clouds Conditions
220° at 18 knots 8,996 meters
  • Overcast at 27,000' AGL
  • Haze
Temperatures Readings
Current 16°C / 61°F
Dewpoint 11°C / 52°F
Humidity 72%
Altimeter 29.73" Hg
Pressure 1007 hPa
Elevation 5
METAR EHVL 221755Z AUTO 22018KT 9000 HZ OVC270 16/11 Q1007 BLU
Observed Flight Rules
Apr-22 @ 17:55 UTC
(25 minutes ago)
VFR
Wind Visibility
220° at 18 knots 8,996 meters
Clouds
  • Overcast at 27,000' AGL
Conditions
  • Haze
Temperature Dewpoint
16°C / 61°F 11°C / 52°F
Humidity Altimeter Pressure
72% 29.73" Hg 1007 hPa